Chase, Canada
Current Conditions -  °F | °C
As of 12:00 PM on Saturday 25 Oct 2014 (Local Time) from CYKA Reporting Station
Overcast Overcast  
Wind Chill: 50°   Ceiling: 5600
Heat Index: 50°   Visibility: 40mi
Dew Point: 37°   Wind: 12mph
Humidity: 62%   Direction: 120°ESE
Pressure: 29.53"   Gusts: NA
Location:  50.82°N, 119.68°W
Report Text: CYKA 251900Z 12010KT 40SM BKN056 OVC210 10/03 A2953 RMK SC5CI3 SLP007
Loading
Personal Weather Stations






























Interactive Weather Map New forecast layout! Learn more

10-Day Weather Forecast

Advertisements
Track Severe Weather on mobile